地図

経路データ

SID SEASON NUMBER BASIN SUBBASIN NAME ISO_TIME NATURE LAT LON WMO_WIND WMO_PRES WMO_AGENCY TRACK_TYPE DIST2LAND LANDFALL IFLAG USA_AGENCY USA_ATCF_ID USA_LAT USA_LON USA_RECORD USA_STATUS USA_WIND USA_PRES USA_SSHS USA_R34_NE USA_R34_SE USA_R34_SW USA_R34_NW USA_R50_NE USA_R50_SE USA_R50_SW USA_R50_NW USA_R64_NE USA_R64_SE USA_R64_SW USA_R64_NW USA_POCI USA_ROCI USA_RMW USA_EYE TOKYO_LAT TOKYO_LON TOKYO_GRADE TOKYO_WIND TOKYO_PRES TOKYO_R50_DIR TOKYO_R50_LONG TOKYO_R50_SHORT TOKYO_R30_DIR TOKYO_R30_LONG TOKYO_R30_SHORT TOKYO_LAND CMA_LAT CMA_LON CMA_CAT CMA_WIND CMA_PRES HKO_LAT HKO_LON HKO_CAT HKO_WIND HKO_PRES NEWDELHI_LAT NEWDELHI_LON NEWDELHI_GRADE NEWDELHI_WIND NEWDELHI_PRES NEWDELHI_CI NEWDELHI_DP NEWDELHI_POCI REUNION_LAT REUNION_LON REUNION_TYPE REUNION_WIND REUNION_PRES REUNION_TNUM REUNION_CI REUNION_RMW REUNION_R34_NE REUNION_R34_SE REUNION_R34_SW REUNION_R34_NW REUNION_R50_NE REUNION_R50_SE REUNION_R50_SW REUNION_R50_NW REUNION_R64_NE REUNION_R64_SE REUNION_R64_SW REUNION_R64_NW BOM_LAT BOM_LON BOM_TYPE BOM_WIND BOM_PRES BOM_TNUM BOM_CI BOM_RMW BOM_R34_NE BOM_R34_SE BOM_R34_SW BOM_R34_NW BOM_R50_NE BOM_R50_SE BOM_R50_SW BOM_R50_NW BOM_R64_NE BOM_R64_SE BOM_R64_SW BOM_R64_NW BOM_ROCI BOM_POCI BOM_EYE BOM_POS_METHOD BOM_PRES_METHOD NADI_LAT NADI_LON NADI_CAT NADI_WIND NADI_PRES WELLINGTON_LAT WELLINGTON_LON WELLINGTON_WIND WELLINGTON_PRES DS824_LAT DS824_LON DS824_STAGE DS824_WIND DS824_PRES TD9636_LAT TD9636_LON TD9636_STAGE TD9636_WIND TD9636_PRES TD9635_LAT TD9635_LON TD9635_WIND TD9635_PRES TD9635_ROCI NEUMANN_LAT NEUMANN_LON NEUMANN_CLASS NEUMANN_WIND NEUMANN_PRES MLC_LAT MLC_LON MLC_CLASS MLC_WIND MLC_PRES USA_GUST BOM_GUST BOM_GUST_PER REUNION_GUST REUNION_GUST_PER USA_SEAHGT USA_SEARAD_NE USA_SEARAD_SE USA_SEARAD_SW USA_SEARAD_NW STORM_SPEED STORM_DIR
1992306N12093 1992 120 NI BB NOT_NAMED 1992-10-31 12:00:00 NR 12.1000 92.8000 main 448 447 O_____________ jtwc_io IO091992 12.1000 92.8000 20 -1 5 287
1992306N12093 1992 120 NI BB NOT_NAMED 1992-10-31 15:00:00 NR 12.1801 92.5325 main 452 447 P_____________ IO091992 12.1801 92.5325 20 -1 5 292
1992306N12093 1992 120 NI BB NOT_NAMED 1992-10-31 18:00:00 NR 12.3000 92.3000 main 452 439 O_____________ jtwc_io IO091992 12.3000 92.3000 20 -1 5 308
1992306N12093 1992 120 NI BB NOT_NAMED 1992-10-31 21:00:00 NR 12.4850 92.1275 main 445 432 P_____________ IO091992 12.4850 92.1275 20 -1 5 324
1992306N12093 1992 120 NI BB NOT_NAMED 1992-11-01 00:00:00 NR 12.7000 92.0000 main 432 421 O_____________ jtwc_io IO091992 12.7000 92.0000 20 -1 5 330
1992306N12093 1992 120 NI BB NOT_NAMED 1992-11-01 03:00:00 NR 12.9000 91.8850 main 421 412 P_____________ IO091992 12.9000 91.8850 20 -1 4 334
1992306N12093 1992 120 NI BB NOT_NAMED 1992-11-01 06:00:00 NR 13.1000 91.8000 main 412 395 O_____________ jtwc_io IO091992 13.1000 91.8000 20 -1 4 341
1992306N12093 1992 120 NI BB NOT_NAMED 1992-11-01 09:00:00 NR 13.3075 91.7425 main 403 388 P_____________ IO091992 13.3075 91.7425 20 -1 4 347
1992306N12093 1992 120 NI BB NOT_NAMED 1992-11-01 12:00:00 NR 13.5000 91.7000 main 388 380 O_____________ jtwc_io IO091992 13.5000 91.7000 20 -1 4 346
1992306N12093 1992 120 NI BB NOT_NAMED 1992-11-01 15:00:00 NR 13.6575 91.6500 main 372 372 P_____________ IO091992 13.6575 91.6500 20 -1 3 343
1992306N12093 1992 120 NI BB NOT_NAMED 1992-11-01 18:00:00 NR 13.8000 91.6000 main 372 365 O_____________ jtwc_io IO091992 13.8000 91.6000 20 -1 3 344
1992306N12093 1992 120 NI BB NOT_NAMED 1992-11-01 21:00:00 NR 13.9575 91.5575 main 358 358 P_____________ IO091992 13.9575 91.5575 20 -1 3 343
1992306N12093 1992 120 NI BB NOT_NAMED 1992-11-02 00:00:00 NR 14.1000 91.5000 main 359 353 O_____________ jtwc_io IO091992 14.1000 91.5000 20 -1 3 331
1992306N12093 1992 120 NI BB NOT_NAMED 1992-11-02 03:00:00 NR 14.2075 91.4150 main 361 355 P_____________ IO091992 14.2075 91.4150 20 -1 3 316
1992306N12093 1992 120 NI BB NOT_NAMED 1992-11-02 06:00:00 NR 14.3000 91.3000 main 364 364 O_____________ jtwc_io IO091992 14.3000 91.3000 20 -1 3 309
1992306N12093 1992 120 NI BB NOT_NAMED 1992-11-02 09:00:00 NR 14.4000 91.1650 main 368 368 P_____________ IO091992 14.4000 91.1650 22 -1 4 304
1992306N12093 1992 120 NI BB NOT_NAMED 1992-11-02 12:00:00 NR 14.5000 91.0000 main 382 382 O_____________ jtwc_io IO091992 14.5000 91.0000 25 -1 4 300
1992306N12093 1992 120 NI BB NOT_NAMED 1992-11-02 15:00:00 NR 14.6000 90.8075 main 397 397 P_____________ IO091992 14.6000 90.8075 25 -1 4 297
1992306N12093 1992 120 NI BB NOT_NAMED 1992-11-02 18:00:00 NR 14.7000 90.6000 main 412 412 O_____________ jtwc_io IO091992 14.7000 90.6000 25 -1 5 297
1992306N12093 1992 120 NI BB NOT_NAMED 1992-11-02 21:00:00 NR 14.8075 90.3925 main 429 429 P_____________ IO091992 14.8075 90.3925 27 -1 5 297
1992306N12093 1992 120 NI BB NOT_NAMED 1992-11-03 00:00:00 NR 14.9200 90.1600 1002 newdelhi main 446 446 O___O_________ jtwc_io IO091992 14.9000 90.2000 30 -1 15.0000 90.0000 1002 0.00000 2 1004 4 293
1992306N12093 1992 120 NI BB NOT_NAMED 1992-11-03 03:00:00 NR 14.9508 90.0499 main 463 463 P___P_________ IO091992 14.9575 90.0500 30 -1 14.9375 90.0499 1001 4 1005 2 291
1992306N12093 1992 120 NI BB NOT_NAMED 1992-11-03 06:00:00 NR 15.0000 89.9429 30 1000 newdelhi main 474 471 O___O_________ jtwc_io IO091992 15.0000 89.9000 30 -1 15.0000 90.0000 30 1000 2.00000 6 1006 3 305
1992306N12093 1992 120 NI BB NOT_NAMED 1992-11-03 09:00:00 NR 15.1500 89.7551 main 479 479 P___P_________ IO091992 15.0500 89.7225 32 -1 15.2501 89.7878 30 999 6 1005 5 305
1992306N12093 1992 120 NI BB NOT_NAMED 1992-11-03 12:00:00 NR 15.3000 89.5000 30 998 newdelhi main 509 509 O___O_________ jtwc_io IO091992 15.1000 89.5000 35 0 15.5000 89.5000 30 998 2.00000 6 1004 6 290
1992306N12093 1992 120 NI BB NOT_NAMED 1992-11-03 15:00:00 NR 15.3400 89.2137 main 541 541 P___P_________ IO091992 15.1425 89.2150 35 0 15.5376 89.2124 30 999 6 1005 5 275
1992306N12093 1992 120 NI BB NOT_NAMED 1992-11-03 18:00:00 NR 15.3500 88.9500 30 1000 newdelhi main 560 571 O___O_________ jtwc_io IO091992 15.2000 88.9000 35 0 15.5000 89.0000 30 1000 2.00000 6 1006 4 278
1992306N12093 1992 120 NI BB NOT_NAMED 1992-11-03 21:00:00 NR 15.3923 88.8375 main 574 569 P___P_________ IO091992 15.2850 88.6000 35 0 15.4996 89.0750 32 999 7 1006 3 289
1992306N12093 1992 120 NI BB NOT_NAMED 1992-11-04 00:00:00 NR 15.4500 88.6500 35 998 newdelhi main 559 531 O___O_________ jtwc_io IO091992 15.4000 88.3000 35 0 15.5000 89.0000 35 998 2.50000 8 1006 7 281
1992306N12093 1992 120 NI BB NOT_NAMED 1992-11-04 03:00:00 NR 15.5218 88.1287 main 524 477 P___P_________ IO091992 15.5424 88.0075 35 0 15.5013 88.2500 35 998 8 1006 10 278
1992306N12093 1992 120 NI BB NOT_NAMED 1992-11-04 06:00:00 NR 15.6000 87.6000 35 998 newdelhi main 477 454 O___O_________ jtwc_io IO091992 15.7000 87.7000 35 0 15.5000 87.5000 35 998 2.50000 8 1006 8 282
1992306N12093 1992 120 NI BB NOT_NAMED 1992-11-04 09:00:00 NR 15.6786 87.3613 main 454 447 P___P_________ IO091992 15.8576 87.3350 35 0 15.4996 87.3875 35 998 8 1006 4 294
1992306N12093 1992 120 NI BB NOT_NAMED 1992-11-04 12:00:00 NR 15.7500 87.2500 35 998 newdelhi main 439 431 O___O_________ jtwc_io IO091992 16.0000 87.0000 35 0 15.5000 87.5000 35 998 2.50000 8 1006 2 301
1992306N12093 1992 120 NI BB NOT_NAMED 1992-11-04 15:00:00 NR 15.7886 87.1686 main 431 424 P___P_________ IO091992 16.1149 86.7625 37 0 15.4623 87.5748 35 999 8 1007 2 297
1992306N12093 1992 120 NI BB NOT_NAMED 1992-11-04 18:00:00 NR 15.8500 87.0500 35 1000 newdelhi main 416 385 O___O_________ jtwc_io IO091992 16.2000 86.6000 40 0 15.5000 87.5000 35 1000 2.50000 8 1008 4 299
1992306N12093 1992 120 NI BB NOT_NAMED 1992-11-04 21:00:00 NR 16.0040 86.7615 main 385 354 P___P_________ IO091992 16.2575 86.4850 42 0 15.7504 87.0381 40 999 9 1008 7 297
1992306N12093 1992 120 NI BB NOT_NAMED 1992-11-05 00:00:00 NR 16.1500 86.4500 45 998 newdelhi main 346 323 O___O_________ jtwc_io IO091992 16.3000 86.4000 45 0 16.0000 86.5000 45 998 3.00000 10 1008 5 291
1992306N12093 1992 120 NI BB NOT_NAMED 1992-11-05 03:00:00 NR 16.1937 86.2374 main 323 316 P___P_________ IO091992 16.3500 86.3000 47 0 16.0374 86.1748 45 998 10 1008 3 278
1992306N12093 1992 120 NI BB NOT_NAMED 1992-11-05 06:00:00 NR 16.2000 86.1000 45 998 newdelhi main 316 309 O___O_________ jtwc_io IO091992 16.4000 86.2000 50 0 16.0000 86.0000 45 998 3.00000 10 1008 2 280
1992306N12093 1992 120 NI BB NOT_NAMED 1992-11-05 09:00:00 NR 16.2287 86.0312 main 309 309 P___P_________ IO091992 16.4575 86.1000 52 0 16.0000 85.9625 45 997 10 1007 1 297
1992306N12093 1992 120 NI BB NOT_NAMED 1992-11-05 12:00:00 NR 16.2500 86.0000 45 996 newdelhi main 301 309 O___O_________ jtwc_io IO091992 16.5000 86.0000 55 0 16.0000 86.0000 45 996 3.00000 10 1006 1 280
1992306N12093 1992 120 NI BB NOT_NAMED 1992-11-05 15:00:00 NR 16.2387 85.9687 main 309 302 P___P_________ IO091992 16.5150 85.9000 55 0 15.9625 86.0374 45 997 10 1007 1 270
1992306N12093 1992 120 NI BB NOT_NAMED 1992-11-05 18:00:00 NR 16.2500 85.9000 45 998 newdelhi main 294 280 O___O_________ jtwc_io IO091992 16.5000 85.8000 55 0 16.0000 86.0000 45 998 3.00000 10 1008 3 297
1992306N12093 1992 120 NI BB NOT_NAMED 1992-11-05 21:00:00 NR 16.3538 85.7289 main 272 265 P___P_________ IO091992 16.4575 85.7075 55 0 16.2501 85.7503 45 999 10 1009 4 301
1992306N12093 1992 120 NI BB NOT_NAMED 1992-11-06 00:00:00 NR 16.4500 85.5500 45 1000 newdelhi main 256 250 O___O_________ jtwc_io IO091992 16.4000 85.6000 55 0 16.5000 85.5000 45 1000 3.00000 10 1010 3 290
1992306N12093 1992 120 NI BB NOT_NAMED 1992-11-06 03:00:00 NR 16.4437 85.4637 main 259 253 P___P_________ IO091992 16.3500 85.4650 55 0 16.5374 85.4624 45 1000 10 1010 2 251
1992306N12093 1992 120 NI BB NOT_NAMED 1992-11-06 06:00:00 NR 16.4000 85.4000 45 1000 newdelhi main 253 247 O___O_________ jtwc_io IO091992 16.3000 85.3000 55 0 16.5000 85.5000 45 1000 3.00000 10 1010 1 240
1992306N12093 1992 120 NI BB NOT_NAMED 1992-11-06 09:00:00 NR 16.3749 85.3412 main 247 242 P___P_________ IO091992 16.2500 85.1075 52 0 16.4998 85.5750 40 1000 9 1009 2 256
1992306N12093 1992 120 NI BB NOT_NAMED 1992-11-06 12:00:00 NR 16.3500 85.2000 35 1000 newdelhi main 242 223 O___O_________ jtwc_io IO091992 16.2000 84.9000 50 0 16.5000 85.5000 35 1000 2.50000 8 1008 4 268
1992306N12093 1992 120 NI BB NOT_NAMED 1992-11-06 15:00:00 NR 16.3587 84.9102 main 223 200 P___P_________ IO091992 16.1800 84.7076 47 0 16.5374 85.1129 32 1001 7 1008 7 266
1992306N12093 1992 120 NI BB NOT_NAMED 1992-11-06 18:00:00 NR 16.3000 84.5000 30 1002 newdelhi main 200 183 O___O_________ jtwc_io IO091992 16.1000 84.5000 45 0 16.5000 84.5000 30 1002 2.00000 6 1008 9 252
1992306N12093 1992 120 NI BB NOT_NAMED 1992-11-06 21:00:00 NR 16.0766 83.9921 main 187 165 P___P_________ IO091992 15.9024 84.2726 42 0 16.2507 83.7117 30 1003 6 1009 10 239
1992306N12093 1992 120 NI BB NOT_NAMED 1992-11-07 00:00:00 NR 15.7714 83.5714 30 1004 newdelhi main 165 162 O___O_________ jtwc_io IO091992 15.6000 84.0000 40 0 16.0000 83.0000 30 1004 2.00000 6 1010 9 227
1992306N12093 1992 120 NI BB NOT_NAMED 1992-11-07 03:00:00 NR 15.4657 83.3176 main 163 163 P___P_________ IO091992 15.2300 83.6574 37 0 15.9370 82.6380 1006 4 1010 8 210
1992306N12093 1992 120 NI BB NOT_NAMED 1992-11-07 06:00:00 NR 15.0400 83.1400 1008 newdelhi main 198 198 O___O_________ jtwc_io IO091992 14.8000 83.3000 35 0 16.0000 82.5000 1008 0.00000 2 1010 12 196
1992306N12093 1992 120 NI BB NOT_NAMED 1992-11-07 09:00:00 NR 14.3424 82.9926 main 263 259 P_____________ IO091992 14.3424 82.9926 32 -1 12 200
1992306N12093 1992 120 NI BB NOT_NAMED 1992-11-07 12:00:00 NR 13.9000 82.7000 main 259 227 O_____________ jtwc_io IO091992 13.9000 82.7000 30 -1 10 215
1992306N12093 1992 120 NI BB NOT_NAMED 1992-11-07 15:00:00 NR 13.5125 82.3850 main 227 195 P_____________ IO091992 13.5125 82.3850 27 -1 9 220
1992306N12093 1992 120 NI BB NOT_NAMED 1992-11-07 18:00:00 NR 13.2000 82.1000 main 195 176 O_____________ jtwc_io IO091992 13.2000 82.1000 25 -1 7 222
1992306N12093 1992 120 NI BB NOT_NAMED 1992-11-07 21:00:00 NR 12.9750 81.8800 main 176 161 P_____________ IO091992 12.9750 81.8800 25 -1 6 224
1992306N12093 1992 120 NI BB NOT_NAMED 1992-11-08 00:00:00 NR 12.8000 81.7000 main 161 O_____________ jtwc_io IO091992 12.8000 81.7000 25 -1 5 226

IBTrACS Databaseについて

本データベースは、米国NOAAが公開する1842年以降の世界の熱帯低気圧のベストトラックデータアーカイブInternational Best Track Archive for Climate Stewardship (IBTrACS)を、ウェブで閲覧しやすい形式に変換したものです。

最終更新日:2021-11-26